sensor_id;sensor_type;location;lat;lon;timestamp;temperature;humidity
45339;DHT22;31071;51.478;5.710;2024-03-02T00:03:42;9.40;94.80
45339;DHT22;31071;51.478;5.710;2024-03-02T00:06:15;11.20;95.70
45339;DHT22;31071;51.478;5.710;2024-03-02T00:08:41;9.40;94.80
45339;DHT22;31071;51.478;5.710;2024-03-02T00:11:07;9.50;94.90
45339;DHT22;31071;51.478;5.710;2024-03-02T00:16:00;9.50;94.20
45339;DHT22;31071;51.478;5.710;2024-03-02T00:18:36;9.50;94.30
45339;DHT22;31071;51.478;5.710;2024-03-02T00:21:03;9.60;94.60
45339;DHT22;31071;51.478;5.710;2024-03-02T00:25:57;9.60;93.70
45339;DHT22;31071;51.478;5.710;2024-03-02T00:28:31;11.90;94.90
45339;DHT22;31071;51.478;5.710;2024-03-02T00:31:08;9.60;93.80
45339;DHT22;31071;51.478;5.710;2024-03-02T00:33:49;9.60;94.10
45339;DHT22;31071;51.478;5.710;2024-03-02T00:36:16;9.70;93.80
45339;DHT22;31071;51.478;5.710;2024-03-02T00:38:46;9.70;93.60
45339;DHT22;31071;51.478;5.710;2024-03-02T00:41:32;9.70;93.60
45339;DHT22;31071;51.478;5.710;2024-03-02T00:44:07;9.60;94.90
45339;DHT22;31071;51.478;5.710;2024-03-02T00:46:36;8.80;99.90
45339;DHT22;31071;51.478;5.710;2024-03-02T00:49:25;8.80;99.90
45339;DHT22;31071;51.478;5.710;2024-03-02T00:51:54;8.60;99.90
45339;DHT22;31071;51.478;5.710;2024-03-02T00:54:22;8.30;99.90
45339;DHT22;31071;51.478;5.710;2024-03-02T00:56:57;8.30;99.90
45339;DHT22;31071;51.478;5.710;2024-03-02T01:06:43;8.20;99.90
45339;DHT22;31071;51.478;5.710;2024-03-02T01:11:35;8.10;99.90
45339;DHT22;31071;51.478;5.710;2024-03-02T01:31:03;8.10;99.90
45339;DHT22;31071;51.478;5.710;2024-03-02T01:35:55;8.00;99.90
45339;DHT22;31071;51.478;5.710;2024-03-02T01:38:23;8.00;99.90
45339;DHT22;31071;51.478;5.710;2024-03-02T01:40:49;9.90;99.90
45339;DHT22;31071;51.478;5.710;2024-03-02T01:43:14;8.00;99.90
45339;DHT22;31071;51.478;5.710;2024-03-02T01:48:07;7.90;99.90
45339;DHT22;31071;51.478;5.710;2024-03-02T01:50:33;7.90;99.90
45339;DHT22;31071;51.478;5.710;2024-03-02T01:57:55;7.90;99.90
45339;DHT22;31071;51.478;5.710;2024-03-02T02:05:24;7.90;99.90
45339;DHT22;31071;51.478;5.710;2024-03-02T02:07:50;6.90;99.90
45339;DHT22;31071;51.478;5.710;2024-03-02T02:10:16;8.20;99.90
45339;DHT22;31071;51.478;5.710;2024-03-02T02:15:28;7.80;99.90
45339;DHT22;31071;51.478;5.710;2024-03-02T02:17:54;9.20;99.90
45339;DHT22;31071;51.478;5.710;2024-03-02T02:23:04;7.80;99.90
45339;DHT22;31071;51.478;5.710;2024-03-02T02:25:34;7.70;99.90
45339;DHT22;31071;51.478;5.710;2024-03-02T02:28:14;7.70;99.90
45339;DHT22;31071;51.478;5.710;2024-03-02T02:35:32;7.60;99.90
45339;DHT22;31071;51.478;5.710;2024-03-02T02:37:58;7.60;99.90
45339;DHT22;31071;51.478;5.710;2024-03-02T02:45:19;7.60;99.90
45339;DHT22;31071;51.478;5.710;2024-03-02T02:47:45;7.60;99.90
45339;DHT22;31071;51.478;5.710;2024-03-02T02:50:23;7.60;99.90
45339;DHT22;31071;51.478;5.710;2024-03-02T02:53:00;7.60;99.90
45339;DHT22;31071;51.478;5.710;2024-03-02T02:56:22;7.70;99.90
45339;DHT22;31071;51.478;5.710;2024-03-02T02:58:43;7.70;99.90
45339;DHT22;31071;51.478;5.710;2024-03-02T03:01:11;7.70;99.90
45339;DHT22;31071;51.478;5.710;2024-03-02T03:06:03;7.70;99.90
45339;DHT22;31071;51.478;5.710;2024-03-02T03:08:29;7.70;99.90
45339;DHT22;31071;51.478;5.710;2024-03-02T03:13:21;7.70;99.90
45339;DHT22;31071;51.478;5.710;2024-03-02T03:15:46;7.70;99.90
45339;DHT22;31071;51.478;5.710;2024-03-02T03:18:12;7.70;99.90
45339;DHT22;31071;51.478;5.710;2024-03-02T03:28:03;7.70;99.90
45339;DHT22;31071;51.478;5.710;2024-03-02T03:30:56;7.70;99.90
45339;DHT22;31071;51.478;5.710;2024-03-02T03:33:28;7.70;99.90
45339;DHT22;31071;51.478;5.710;2024-03-02T03:38:20;7.60;99.90
45339;DHT22;31071;51.478;5.710;2024-03-02T03:43:13;7.60;99.90
45339;DHT22;31071;51.478;5.710;2024-03-02T03:45:38;7.60;99.90
45339;DHT22;31071;51.478;5.710;2024-03-02T03:48:04;7.60;99.90
45339;DHT22;31071;51.478;5.710;2024-03-02T03:50:30;7.60;99.90
45339;DHT22;31071;51.478;5.710;2024-03-02T03:52:56;7.60;99.90
45339;DHT22;31071;51.478;5.710;2024-03-02T04:00:14;7.60;99.90
45339;DHT22;31071;51.478;5.710;2024-03-02T04:05:06;7.60;99.90
45339;DHT22;31071;51.478;5.710;2024-03-02T04:07:37;7.60;99.90
45339;DHT22;31071;51.478;5.710;2024-03-02T04:10:07;9.10;99.90
45339;DHT22;31071;51.478;5.710;2024-03-02T04:12:34;7.50;99.90
45339;DHT22;31071;51.478;5.710;2024-03-02T04:19:53;7.50;99.90
45339;DHT22;31071;51.478;5.710;2024-03-02T04:29:37;7.40;99.90
45339;DHT22;31071;51.478;5.710;2024-03-02T04:32:03;7.40;99.90
45339;DHT22;31071;51.478;5.710;2024-03-02T04:37:16;7.30;99.90
45339;DHT22;31071;51.478;5.710;2024-03-02T04:39:45;7.20;99.90
45339;DHT22;31071;51.478;5.710;2024-03-02T04:44:37;7.20;99.90
45339;DHT22;31071;51.478;5.710;2024-03-02T04:47:04;7.20;99.90
45339;DHT22;31071;51.478;5.710;2024-03-02T04:56:48;7.20;99.90
45339;DHT22;31071;51.478;5.710;2024-03-02T04:59:18;8.00;99.90
45339;DHT22;31071;51.478;5.710;2024-03-02T05:04:10;7.20;99.90
45339;DHT22;31071;51.478;5.710;2024-03-02T05:06:39;7.20;99.90
45339;DHT22;31071;51.478;5.710;2024-03-02T05:11:35;7.20;99.90
45339;DHT22;31071;51.478;5.710;2024-03-02T05:16:33;7.30;99.90
45339;DHT22;31071;51.478;5.710;2024-03-02T05:21:26;7.20;99.90
45339;DHT22;31071;51.478;5.710;2024-03-02T05:23:51;6.80;99.90
45339;DHT22;31071;51.478;5.710;2024-03-02T05:26:17;7.20;99.90
45339;DHT22;31071;51.478;5.710;2024-03-02T05:28:46;7.20;99.90
45339;DHT22;31071;51.478;5.710;2024-03-02T05:31:15;7.10;99.90
45339;DHT22;31071;51.478;5.710;2024-03-02T05:36:08;7.00;99.90
45339;DHT22;31071;51.478;5.710;2024-03-02T05:38:36;7.00;99.90
45339;DHT22;31071;51.478;5.710;2024-03-02T05:41:03;7.00;99.90
45339;DHT22;31071;51.478;5.710;2024-03-02T05:43:29;7.00;99.90
45339;DHT22;31071;51.478;5.710;2024-03-02T05:50:47;6.90;99.90
45339;DHT22;31071;51.478;5.710;2024-03-02T05:55:39;6.90;99.90
45339;DHT22;31071;51.478;5.710;2024-03-02T05:58:05;6.90;99.90
45339;DHT22;31071;51.478;5.710;2024-03-02T06:00:51;9.30;99.90
45339;DHT22;31071;51.478;5.710;2024-03-02T06:03:17;7.80;99.90
45339;DHT22;31071;51.478;5.710;2024-03-02T06:05:43;7.00;99.90
45339;DHT22;31071;51.478;5.710;2024-03-02T06:08:09;7.00;99.90
45339;DHT22;31071;51.478;5.710;2024-03-02T06:10:35;6.30;99.90
45339;DHT22;31071;51.478;5.710;2024-03-02T06:20:29;7.00;99.90
45339;DHT22;31071;51.478;5.710;2024-03-02T06:22:58;7.00;99.90
45339;DHT22;31071;51.478;5.710;2024-03-02T06:25:24;7.00;99.90
45339;DHT22;31071;51.478;5.710;2024-03-02T06:27:53;6.90;99.90
45339;DHT22;31071;51.478;5.710;2024-03-02T06:35:16;6.80;99.90
45339;DHT22;31071;51.478;5.710;2024-03-02T06:40:08;6.80;99.90
45339;DHT22;31071;51.478;5.710;2024-03-02T06:45:02;6.80;99.90
45339;DHT22;31071;51.478;5.710;2024-03-02T06:49:55;6.80;99.90
45339;DHT22;31071;51.478;5.710;2024-03-02T06:54:59;6.70;99.90
45339;DHT22;31071;51.478;5.710;2024-03-02T07:02:36;8.80;99.90
45339;DHT22;31071;51.478;5.710;2024-03-02T07:10:06;6.90;99.90
45339;DHT22;31071;51.478;5.710;2024-03-02T07:15:03;7.30;99.90
45339;DHT22;31071;51.478;5.710;2024-03-02T07:20:21;7.40;99.90
45339;DHT22;31071;51.478;5.710;2024-03-02T07:22:47;6.90;99.90
45339;DHT22;31071;51.478;5.710;2024-03-02T07:25:13;9.60;99.90
45339;DHT22;31071;51.478;5.710;2024-03-02T07:30:06;8.10;99.90
45339;DHT22;31071;51.478;5.710;2024-03-02T07:32:32;8.10;99.90
45339;DHT22;31071;51.478;5.710;2024-03-02T07:34:58;8.40;99.90
45339;DHT22;31071;51.478;5.710;2024-03-02T07:37:24;8.50;99.90
45339;DHT22;31071;51.478;5.710;2024-03-02T07:39:50;8.60;99.90
45339;DHT22;31071;51.478;5.710;2024-03-02T07:44:50;8.70;99.90
45339;DHT22;31071;51.478;5.710;2024-03-02T07:47:16;11.20;99.90
45339;DHT22;31071;51.478;5.710;2024-03-02T07:52:11;8.50;99.90
45339;DHT22;31071;51.478;5.710;2024-03-02T07:54:37;8.40;99.90
45339;DHT22;31071;51.478;5.710;2024-03-02T07:57:03;9.10;99.90
45339;DHT22;31071;51.478;5.710;2024-03-02T07:59:29;8.50;99.90
45339;DHT22;31071;51.478;5.710;2024-03-02T08:04:21;9.80;99.90
45339;DHT22;31071;51.478;5.710;2024-03-02T08:06:48;8.50;99.90
45339;DHT22;31071;51.478;5.710;2024-03-02T08:09:14;8.50;99.90
45339;DHT22;31071;51.478;5.710;2024-03-02T08:11:40;8.60;99.90
45339;DHT22;31071;51.478;5.710;2024-03-02T08:14:05;8.50;99.90
45339;DHT22;31071;51.478;5.710;2024-03-02T08:19:07;8.50;99.90
45339;DHT22;31071;51.478;5.710;2024-03-02T08:21:34;8.50;99.90
45339;DHT22;31071;51.478;5.710;2024-03-02T08:24:02;10.50;99.90
45339;DHT22;31071;51.478;5.710;2024-03-02T08:26:28;9.10;99.90
45339;DHT22;31071;51.478;5.710;2024-03-02T08:28:55;8.60;99.90
45339;DHT22;31071;51.478;5.710;2024-03-02T08:33:53;8.80;99.30
45339;DHT22;31071;51.478;5.710;2024-03-02T08:38:52;8.90;98.90
45339;DHT22;31071;51.478;5.710;2024-03-02T08:46:15;9.30;98.10
45339;DHT22;31071;51.478;5.710;2024-03-02T08:48:41;9.40;97.40
45339;DHT22;31071;51.478;5.710;2024-03-02T08:53:34;10.10;94.70
45339;DHT22;31071;51.478;5.710;2024-03-02T08:56:06;10.00;94.30
45339;DHT22;31071;51.478;5.710;2024-03-02T08:58:41;10.00;94.40
45339;DHT22;31071;51.478;5.710;2024-03-02T09:01:07;13.00;94.90
45339;DHT22;31071;51.478;5.710;2024-03-02T09:03:37;11.20;93.50
45339;DHT22;31071;51.478;5.710;2024-03-02T09:06:03;12.50;91.60
45339;DHT22;31071;51.478;5.710;2024-03-02T09:11:06;12.60;79.90
45339;DHT22;31071;51.478;5.710;2024-03-02T09:13:38;12.60;78.50
45339;DHT22;31071;51.478;5.710;2024-03-02T09:16:06;11.90;73.40
45339;DHT22;31071;51.478;5.710;2024-03-02T09:18:33;12.90;72.50
45339;DHT22;31071;51.478;5.710;2024-03-02T09:20:59;12.90;73.80
45339;DHT22;31071;51.478;5.710;2024-03-02T09:23:24;13.10;70.60
45339;DHT22;31071;51.478;5.710;2024-03-02T09:25:50;14.80;74.20
45339;DHT22;31071;51.478;5.710;2024-03-02T09:28:16;15.70;68.50
45339;DHT22;31071;51.478;5.710;2024-03-02T09:30:44;14.90;64.40
45339;DHT22;31071;51.478;5.710;2024-03-02T09:33:10;16.50;67.50
45339;DHT22;31071;51.478;5.710;2024-03-02T09:35:36;12.70;69.00
45339;DHT22;31071;51.478;5.710;2024-03-02T09:38:04;12.70;73.20
45339;DHT22;31071;51.478;5.710;2024-03-02T09:40:30;12.70;69.10
45339;DHT22;31071;51.478;5.710;2024-03-02T09:42:57;14.70;68.40
45339;DHT22;31071;51.478;5.710;2024-03-02T09:45:24;13.00;66.00
45339;DHT22;31071;51.478;5.710;2024-03-02T09:47:51;13.30;66.70
45339;DHT22;31071;51.478;5.710;2024-03-02T09:50:17;13.60;62.30
45339;DHT22;31071;51.478;5.710;2024-03-02T09:52:43;14.80;58.60
45339;DHT22;31071;51.478;5.710;2024-03-02T09:55:09;14.90;56.50
45339;DHT22;31071;51.478;5.710;2024-03-02T09:57:37;14.30;56.60
45339;DHT22;31071;51.478;5.710;2024-03-02T10:00:03;14.40;60.30
45339;DHT22;31071;51.478;5.710;2024-03-02T10:02:29;15.20;55.60
45339;DHT22;31071;51.478;5.710;2024-03-02T10:04:54;15.80;52.60
45339;DHT22;31071;51.478;5.710;2024-03-02T10:07:23;15.60;53.60
45339;DHT22;31071;51.478;5.710;2024-03-02T10:10:11;14.80;52.00
45339;DHT22;31071;51.478;5.710;2024-03-02T10:12:44;14.20;53.80
45339;DHT22;31071;51.478;5.710;2024-03-02T10:15:10;14.80;51.90
45339;DHT22;31071;51.478;5.710;2024-03-02T10:17:35;15.70;51.30
45339;DHT22;31071;51.478;5.710;2024-03-02T10:20:24;15.40;48.70
45339;DHT22;31071;51.478;5.710;2024-03-02T10:22:50;15.40;50.20
45339;DHT22;31071;51.478;5.710;2024-03-02T10:25:32;17.80;50.70
45339;DHT22;31071;51.478;5.710;2024-03-02T10:27:59;15.40;50.10
45339;DHT22;31071;51.478;5.710;2024-03-02T10:30:27;15.40;49.20
45339;DHT22;31071;51.478;5.710;2024-03-02T10:33:02;15.60;48.70
45339;DHT22;31071;51.478;5.710;2024-03-02T10:35:31;16.30;44.50
45339;DHT22;31071;51.478;5.710;2024-03-02T10:38:04;16.00;44.30
45339;DHT22;31071;51.478;5.710;2024-03-02T10:40:31;18.60;44.20
45339;DHT22;31071;51.478;5.710;2024-03-02T10:43:01;16.40;42.70
45339;DHT22;31071;51.478;5.710;2024-03-02T10:45:29;16.30;43.20
45339;DHT22;31071;51.478;5.710;2024-03-02T10:47:55;15.20;42.40
45339;DHT22;31071;51.478;5.710;2024-03-02T10:50:21;17.20;43.60
45339;DHT22;31071;51.478;5.710;2024-03-02T10:52:47;18.00;42.50
45339;DHT22;31071;51.478;5.710;2024-03-02T10:55:12;18.50;42.10
45339;DHT22;31071;51.478;5.710;2024-03-02T10:57:45;18.30;40.30
45339;DHT22;31071;51.478;5.710;2024-03-02T11:00:25;17.10;39.10
45339;DHT22;31071;51.478;5.710;2024-03-02T11:03:05;16.50;39.40
45339;DHT22;31071;51.478;5.710;2024-03-02T11:05:39;16.40;36.70
45339;DHT22;31071;51.478;5.710;2024-03-02T11:08:10;16.60;36.60
45339;DHT22;31071;51.478;5.710;2024-03-02T11:10:41;16.10;38.60
45339;DHT22;31071;51.478;5.710;2024-03-02T11:13:09;16.10;38.90
45339;DHT22;31071;51.478;5.710;2024-03-02T11:15:36;17.20;37.20
45339;DHT22;31071;51.478;5.710;2024-03-02T11:18:06;17.20;36.80
45339;DHT22;31071;51.478;5.710;2024-03-02T11:20:37;18.30;32.90
45339;DHT22;31071;51.478;5.710;2024-03-02T11:23:08;16.60;35.00
45339;DHT22;31071;51.478;5.710;2024-03-02T11:25:34;17.20;33.70
45339;DHT22;31071;51.478;5.710;2024-03-02T11:28:05;17.00;35.00
45339;DHT22;31071;51.478;5.710;2024-03-02T11:33:08;19.50;31.40
45339;DHT22;31071;51.478;5.710;2024-03-02T11:35:41;18.60;31.90
45339;DHT22;31071;51.478;5.710;2024-03-02T11:38:14;19.00;29.80
45339;DHT22;31071;51.478;5.710;2024-03-02T11:40:40;19.10;31.00
45339;DHT22;31071;51.478;5.710;2024-03-02T11:43:07;19.10;28.40
45339;DHT22;31071;51.478;5.710;2024-03-02T11:45:36;18.40;28.40
45339;DHT22;31071;51.478;5.710;2024-03-02T11:48:06;18.00;29.80
45339;DHT22;31071;51.478;5.710;2024-03-02T11:50:42;18.20;30.40
45339;DHT22;31071;51.478;5.710;2024-03-02T11:53:11;19.60;27.00
45339;DHT22;31071;51.478;5.710;2024-03-02T11:55:42;18.50;27.50
45339;DHT22;31071;51.478;5.710;2024-03-02T11:58:17;17.30;29.40
45339;DHT22;31071;51.478;5.710;2024-03-02T12:00:43;19.30;28.80
45339;DHT22;31071;51.478;5.710;2024-03-02T12:03:12;18.90;26.40
45339;DHT22;31071;51.478;5.710;2024-03-02T12:05:37;19.30;26.90
45339;DHT22;31071;51.478;5.710;2024-03-02T12:08:07;17.80;26.90
45339;DHT22;31071;51.478;5.710;2024-03-02T12:10:34;16.80;30.70
45339;DHT22;31071;51.478;5.710;2024-03-02T12:13:01;16.30;32.30
45339;DHT22;31071;51.478;5.710;2024-03-02T12:15:29;16.10;34.00
45339;DHT22;31071;51.478;5.710;2024-03-02T12:17:56;17.00;32.20
45339;DHT22;31071;51.478;5.710;2024-03-02T12:20:23;17.90;30.80
45339;DHT22;31071;51.478;5.710;2024-03-02T12:22:50;18.00;31.70
45339;DHT22;31071;51.478;5.710;2024-03-02T12:25:21;17.80;29.20
45339;DHT22;31071;51.478;5.710;2024-03-02T12:27:49;17.10;29.20
45339;DHT22;31071;51.478;5.710;2024-03-02T12:30:19;17.10;30.60
45339;DHT22;31071;51.478;5.710;2024-03-02T12:32:45;18.10;29.60
45339;DHT22;31071;51.478;5.710;2024-03-02T12:35:11;18.20;29.20
45339;DHT22;31071;51.478;5.710;2024-03-02T12:37:44;18.20;26.80
45339;DHT22;31071;51.478;5.710;2024-03-02T12:40:14;18.20;26.80
45339;DHT22;31071;51.478;5.710;2024-03-02T12:42:40;17.40;29.20
45339;DHT22;31071;51.478;5.710;2024-03-02T12:45:08;17.50;28.90
45339;DHT22;31071;51.478;5.710;2024-03-02T12:47:34;18.70;27.80
45339;DHT22;31071;51.478;5.710;2024-03-02T12:50:00;18.30;26.90
45339;DHT22;31071;51.478;5.710;2024-03-02T12:52:26;18.50;26.90
45339;DHT22;31071;51.478;5.710;2024-03-02T12:54:52;17.20;28.30
45339;DHT22;31071;51.478;5.710;2024-03-02T12:57:21;17.50;28.20
45339;DHT22;31071;51.478;5.710;2024-03-02T12:59:47;17.30;27.20
45339;DHT22;31071;51.478;5.710;2024-03-02T13:02:20;16.10;31.00
45339;DHT22;31071;51.478;5.710;2024-03-02T13:04:53;15.90;32.10
45339;DHT22;31071;51.478;5.710;2024-03-02T13:07:23;15.60;32.40
45339;DHT22;31071;51.478;5.710;2024-03-02T13:09:53;15.80;33.50
45339;DHT22;31071;51.478;5.710;2024-03-02T13:12:23;15.90;31.60
45339;DHT22;31071;51.478;5.710;2024-03-02T13:14:53;18.10;34.40
45339;DHT22;31071;51.478;5.710;2024-03-02T13:17:19;15.80;33.00
45339;DHT22;31071;51.478;5.710;2024-03-02T13:19:58;17.10;33.90
45339;DHT22;31071;51.478;5.710;2024-03-02T13:22:27;16.30;30.80
45339;DHT22;31071;51.478;5.710;2024-03-02T13:24:53;17.90;31.90
45339;DHT22;31071;51.478;5.710;2024-03-02T13:27:20;16.80;31.10
45339;DHT22;31071;51.478;5.710;2024-03-02T13:29:48;17.20;29.00
45339;DHT22;31071;51.478;5.710;2024-03-02T13:32:15;18.90;27.90
45339;DHT22;31071;51.478;5.710;2024-03-02T13:34:40;19.40;24.60
45339;DHT22;31071;51.478;5.710;2024-03-02T13:37:06;18.80;25.70
45339;DHT22;31071;51.478;5.710;2024-03-02T13:39:32;18.20;25.60
45339;DHT22;31071;51.478;5.710;2024-03-02T13:41:58;19.30;25.50
45339;DHT22;31071;51.478;5.710;2024-03-02T13:44:30;20.60;23.10
45339;DHT22;31071;51.478;5.710;2024-03-02T13:46:56;21.10;22.10
45339;DHT22;31071;51.478;5.710;2024-03-02T13:49:22;21.50;20.20
45339;DHT22;31071;51.478;5.710;2024-03-02T13:51:48;19.20;21.80
45339;DHT22;31071;51.478;5.710;2024-03-02T13:54:14;18.00;24.90
45339;DHT22;31071;51.478;5.710;2024-03-02T13:56:40;17.10;26.90
45339;DHT22;31071;51.478;5.710;2024-03-02T13:59:07;16.30;29.00
45339;DHT22;31071;51.478;5.710;2024-03-02T14:01:32;18.00;33.60
45339;DHT22;31071;51.478;5.710;2024-03-02T14:03:58;16.70;30.00
45339;DHT22;31071;51.478;5.710;2024-03-02T14:06:24;17.20;29.00
45339;DHT22;31071;51.478;5.710;2024-03-02T14:08:52;17.70;26.70
45339;DHT22;31071;51.478;5.710;2024-03-02T14:11:18;17.00;28.40
45339;DHT22;31071;51.478;5.710;2024-03-02T14:13:44;17.60;30.90
45339;DHT22;31071;51.478;5.710;2024-03-02T14:16:15;19.00;32.20
45339;DHT22;31071;51.478;5.710;2024-03-02T14:18:41;17.40;28.90
45339;DHT22;31071;51.478;5.710;2024-03-02T14:21:07;18.60;28.50
45339;DHT22;31071;51.478;5.710;2024-03-02T14:23:33;18.70;25.80
45339;DHT22;31071;51.478;5.710;2024-03-02T14:25:58;18.40;27.90
45339;DHT22;31071;51.478;5.710;2024-03-02T14:28:24;18.30;25.80
45339;DHT22;31071;51.478;5.710;2024-03-02T14:30:50;18.40;26.80
45339;DHT22;31071;51.478;5.710;2024-03-02T14:33:16;18.10;26.20
45339;DHT22;31071;51.478;5.710;2024-03-02T14:35:42;17.70;28.10
45339;DHT22;31071;51.478;5.710;2024-03-02T14:43:00;16.20;32.50
45339;DHT22;31071;51.478;5.710;2024-03-02T14:47:52;16.10;35.10
45339;DHT22;31071;51.478;5.710;2024-03-02T14:50:18;18.50;38.60
45339;DHT22;31071;51.478;5.710;2024-03-02T14:52:47;15.90;35.70
45339;DHT22;31071;51.478;5.710;2024-03-02T14:55:12;17.40;37.80
45339;DHT22;31071;51.478;5.710;2024-03-02T14:57:41;17.40;39.40
45339;DHT22;31071;51.478;5.710;2024-03-02T15:00:07;15.10;40.70
45339;DHT22;31071;51.478;5.710;2024-03-02T15:03:00;15.10;40.10
45339;DHT22;31071;51.478;5.710;2024-03-02T15:05:26;15.30;40.50
45339;DHT22;31071;51.478;5.710;2024-03-02T15:07:52;15.90;40.60
45339;DHT22;31071;51.478;5.710;2024-03-02T15:15:20;14.90;43.50
45339;DHT22;31071;51.478;5.710;2024-03-02T15:17:54;14.70;43.70
45339;DHT22;31071;51.478;5.710;2024-03-02T15:27:42;15.10;44.20
45339;DHT22;31071;51.478;5.710;2024-03-02T15:30:08;15.30;42.50
45339;DHT22;31071;51.478;5.710;2024-03-02T15:32:33;15.20;42.50
45339;DHT22;31071;51.478;5.710;2024-03-02T15:35:00;16.70;43.60
45339;DHT22;31071;51.478;5.710;2024-03-02T15:37:25;15.20;40.40
45339;DHT22;31071;51.478;5.710;2024-03-02T15:42:17;15.00;44.70
45339;DHT22;31071;51.478;5.710;2024-03-02T15:44:43;14.90;44.40
45339;DHT22;31071;51.478;5.710;2024-03-02T15:47:14;15.00;43.10
45339;DHT22;31071;51.478;5.710;2024-03-02T15:49:40;15.00;44.00
45339;DHT22;31071;51.478;5.710;2024-03-02T15:52:06;15.00;44.10
45339;DHT22;31071;51.478;5.710;2024-03-02T15:54:32;15.10;43.70
45339;DHT22;31071;51.478;5.710;2024-03-02T15:56:57;17.00;46.60
45339;DHT22;31071;51.478;5.710;2024-03-02T15:59:23;16.10;46.10
45339;DHT22;31071;51.478;5.710;2024-03-02T16:01:49;15.20;46.40
45339;DHT22;31071;51.478;5.710;2024-03-02T16:06:41;14.70;47.20
45339;DHT22;31071;51.478;5.710;2024-03-02T16:09:06;14.70;48.80
45339;DHT22;31071;51.478;5.710;2024-03-02T16:11:36;14.60;47.80
45339;DHT22;31071;51.478;5.710;2024-03-02T16:14:01;14.60;48.50
45339;DHT22;31071;51.478;5.710;2024-03-02T16:18:53;14.40;48.90
45339;DHT22;31071;51.478;5.710;2024-03-02T16:26:11;14.30;50.80
45339;DHT22;31071;51.478;5.710;2024-03-02T16:28:40;14.10;52.70
45339;DHT22;31071;51.478;5.710;2024-03-02T16:31:05;16.00;55.20
45339;DHT22;31071;51.478;5.710;2024-03-02T16:33:31;14.10;54.20
45339;DHT22;31071;51.478;5.710;2024-03-02T16:35:56;13.90;54.60
45339;DHT22;31071;51.478;5.710;2024-03-02T16:43:14;13.90;57.00
45339;DHT22;31071;51.478;5.710;2024-03-02T16:45:40;13.80;58.40
45339;DHT22;31071;51.478;5.710;2024-03-02T16:48:06;13.70;59.90
45339;DHT22;31071;51.478;5.710;2024-03-02T16:50:35;13.60;60.90
45339;DHT22;31071;51.478;5.710;2024-03-02T16:53:01;13.70;63.00
45339;DHT22;31071;51.478;5.710;2024-03-02T16:55:26;15.20;64.80
45339;DHT22;31071;51.478;5.710;2024-03-02T17:00:24;13.50;64.60
45339;DHT22;31071;51.478;5.710;2024-03-02T17:02:55;13.60;66.50
45339;DHT22;31071;51.478;5.710;2024-03-02T17:05:47;13.50;66.60
45339;DHT22;31071;51.478;5.710;2024-03-02T17:08:13;13.60;67.20
45339;DHT22;31071;51.478;5.710;2024-03-02T17:10:41;13.40;68.00
45339;DHT22;31071;51.478;5.710;2024-03-02T17:13:18;13.40;68.70
45339;DHT22;31071;51.478;5.710;2024-03-02T17:15:44;13.40;68.30
45339;DHT22;31071;51.478;5.710;2024-03-02T17:18:09;13.30;69.20
45339;DHT22;31071;51.478;5.710;2024-03-02T17:20:35;13.10;69.90
45339;DHT22;31071;51.478;5.710;2024-03-02T17:23:01;13.10;70.50
45339;DHT22;31071;51.478;5.710;2024-03-02T17:25:29;13.10;70.80
45339;DHT22;31071;51.478;5.710;2024-03-02T17:28:19;13.10;71.30
45339;DHT22;31071;51.478;5.710;2024-03-02T17:30:45;13.00;72.50
45339;DHT22;31071;51.478;5.710;2024-03-02T17:33:10;14.30;73.70
45339;DHT22;31071;51.478;5.710;2024-03-02T17:35:39;13.10;72.70
45339;DHT22;31071;51.478;5.710;2024-03-02T17:40:53;12.90;72.40
45339;DHT22;31071;51.478;5.710;2024-03-02T17:45:44;13.00;72.90
45339;DHT22;31071;51.478;5.710;2024-03-02T17:48:09;15.10;75.40
45339;DHT22;31071;51.478;5.710;2024-03-02T17:50:38;12.90;72.60
45339;DHT22;31071;51.478;5.710;2024-03-02T17:53:04;14.20;73.60
45339;DHT22;31071;51.478;5.710;2024-03-02T17:55:29;13.10;72.50
45339;DHT22;31071;51.478;5.710;2024-03-02T18:00:21;13.00;71.90
45339;DHT22;31071;51.478;5.710;2024-03-02T18:02:47;13.00;71.50
45339;DHT22;31071;51.478;5.710;2024-03-02T18:05:13;13.00;72.50
45339;DHT22;31071;51.478;5.710;2024-03-02T18:07:39;12.90;71.50
45339;DHT22;31071;51.478;5.710;2024-03-02T18:10:06;12.90;72.30
45339;DHT22;31071;51.478;5.710;2024-03-02T18:12:32;13.00;71.20
45339;DHT22;31071;51.478;5.710;2024-03-02T18:14:58;13.00;71.00
45339;DHT22;31071;51.478;5.710;2024-03-02T18:17:24;12.90;70.80
45339;DHT22;31071;51.478;5.710;2024-03-02T18:19:51;13.00;70.10
45339;DHT22;31071;51.478;5.710;2024-03-02T18:22:17;13.00;71.10
45339;DHT22;31071;51.478;5.710;2024-03-02T18:24:43;13.10;70.40
45339;DHT22;31071;51.478;5.710;2024-03-02T18:27:13;12.90;70.50
45339;DHT22;31071;51.478;5.710;2024-03-02T18:29:40;13.00;70.30
45339;DHT22;31071;51.478;5.710;2024-03-02T18:32:06;13.00;71.30
45339;DHT22;31071;51.478;5.710;2024-03-02T18:34:32;13.00;71.20
45339;DHT22;31071;51.478;5.710;2024-03-02T18:36:58;13.00;71.50
45339;DHT22;31071;51.478;5.710;2024-03-02T18:39:24;14.00;72.50
45339;DHT22;31071;51.478;5.710;2024-03-02T18:41:49;13.00;72.40
45339;DHT22;31071;51.478;5.710;2024-03-02T18:44:15;12.90;72.60
45339;DHT22;31071;51.478;5.710;2024-03-02T18:46:41;12.90;72.40
45339;DHT22;31071;51.478;5.710;2024-03-02T18:49:07;12.90;73.50
45339;DHT22;31071;51.478;5.710;2024-03-02T18:51:33;13.00;71.80
45339;DHT22;31071;51.478;5.710;2024-03-02T18:53:59;12.90;72.60
45339;DHT22;31071;51.478;5.710;2024-03-02T18:56:24;12.80;73.20
45339;DHT22;31071;51.478;5.710;2024-03-02T18:58:56;12.90;71.50
45339;DHT22;31071;51.478;5.710;2024-03-02T19:01:22;12.90;73.00
45339;DHT22;31071;51.478;5.710;2024-03-02T19:03:50;12.90;72.20
45339;DHT22;31071;51.478;5.710;2024-03-02T19:08:43;12.90;70.50
45339;DHT22;31071;51.478;5.710;2024-03-02T19:11:13;15.10;72.30
45339;DHT22;31071;51.478;5.710;2024-03-02T19:13:45;13.00;71.10
45339;DHT22;31071;51.478;5.710;2024-03-02T19:16:12;12.90;71.50
45339;DHT22;31071;51.478;5.710;2024-03-02T19:18:42;12.90;71.50
45339;DHT22;31071;51.478;5.710;2024-03-02T19:21:08;12.90;71.70
45339;DHT22;31071;51.478;5.710;2024-03-02T19:23:37;12.80;71.90
45339;DHT22;31071;51.478;5.710;2024-03-02T19:26:02;12.80;72.70
45339;DHT22;31071;51.478;5.710;2024-03-02T19:28:31;12.80;73.30
45339;DHT22;31071;51.478;5.710;2024-03-02T19:30:56;12.70;74.30
45339;DHT22;31071;51.478;5.710;2024-03-02T19:33:22;12.60;73.50
45339;DHT22;31071;51.478;5.710;2024-03-02T19:35:48;12.50;74.90
45339;DHT22;31071;51.478;5.710;2024-03-02T19:38:13;12.50;74.50
45339;DHT22;31071;51.478;5.710;2024-03-02T19:40:40;12.40;74.10
45339;DHT22;31071;51.478;5.710;2024-03-02T19:43:05;12.40;74.20
45339;DHT22;31071;51.478;5.710;2024-03-02T19:45:32;12.40;74.80
45339;DHT22;31071;51.478;5.710;2024-03-02T19:47:58;12.40;74.60
45339;DHT22;31071;51.478;5.710;2024-03-02T19:50:26;12.50;74.50